createdAt,value
2022-11-05T09:17:38.302Z,98073.00
2022-11-05T09:22:44.184Z,98091.00
2022-11-05T09:27:46.981Z,98101.00
2022-11-05T09:32:49.685Z,98113.00
2022-11-05T09:37:55.606Z,98127.00
2022-11-05T09:43:03.171Z,98129.00
2022-11-05T09:48:15.420Z,98124.00
2022-11-05T09:53:20.297Z,98131.00
2022-11-05T09:58:44.224Z,98141.00
2022-11-05T10:03:51.023Z,98140.00
2022-11-05T10:09:11.305Z,98139.00
2022-11-05T10:14:23.522Z,98139.00
2022-11-05T10:19:36.394Z,98157.00
2022-11-05T10:24:43.406Z,98151.00
2022-11-05T10:29:47.070Z,98148.00
2022-11-05T10:34:51.762Z,98160.00
2022-11-05T10:39:55.329Z,98156.00
2022-11-05T10:45:08.473Z,98159.00
2022-11-05T10:50:18.171Z,98160.00
2022-11-05T10:55:36.945Z,98159.00
2022-11-05T11:00:40.345Z,98166.00
2022-11-05T11:05:43.272Z,98178.00
2022-11-05T11:10:52.255Z,98170.00
2022-11-05T11:15:55.715Z,98162.00
2022-11-05T11:21:14.661Z,98167.00
2022-11-05T11:26:17.573Z,98159.00
2022-11-05T11:31:26.250Z,98159.00
2022-11-05T11:36:50.671Z,98169.00
2022-11-05T11:42:03.742Z,98169.00
2022-11-05T11:47:15.772Z,98165.00
2022-11-05T11:52:30.795Z,98179.00
2022-11-05T11:57:44.479Z,98180.00
2022-11-05T12:03:21.586Z,98184.00
2022-11-05T12:09:03.679Z,98201.00
2022-11-05T12:14:34.872Z,98193.00
2022-11-05T12:19:52.643Z,98183.00
2022-11-05T12:25:18.524Z,98198.00
2022-11-05T12:30:22.833Z,98194.00
2022-11-05T12:35:57.437Z,98183.00
2022-11-05T12:41:37.100Z,98191.00
2022-11-05T12:47:03.567Z,98198.00
2022-11-05T12:52:17.175Z,98199.00
2022-11-05T12:57:22.664Z,98200.00
2022-11-05T13:02:47.019Z,98197.00
2022-11-05T13:08:23.746Z,98199.00
2022-11-05T13:13:45.493Z,98197.00
2022-11-05T13:19:09.905Z,98198.00
2022-11-05T13:24:26.414Z,98204.00
2022-11-05T13:29:47.995Z,98201.00
2022-11-05T13:34:57.193Z,98205.00
2022-11-05T13:40:06.353Z,98205.00
2022-11-05T13:45:27.163Z,98216.00
2022-11-05T13:50:46.173Z,98234.00
2022-11-05T13:55:58.125Z,98235.00
2022-11-05T14:01:46.964Z,98239.00
2022-11-05T14:06:50.048Z,98231.00
2022-11-05T14:11:56.677Z,98248.00
2022-11-05T14:17:08.507Z,98242.00
2022-11-05T14:22:32.954Z,98247.00
2022-11-05T14:27:41.947Z,98249.00
2022-11-05T14:32:50.123Z,98245.00
2022-11-05T14:37:56.540Z,98243.00
2022-11-05T14:43:02.619Z,98238.00
2022-11-05T14:48:37.720Z,98241.00
2022-11-05T14:53:41.006Z,98252.00
2022-11-05T14:58:45.337Z,98258.00
2022-11-05T15:04:16.964Z,98262.00
2022-11-05T15:09:28.849Z,98264.00
2022-11-05T15:14:52.078Z,98271.00
2022-11-05T15:19:55.853Z,98274.00
2022-11-05T15:24:58.983Z,98274.00
2022-11-05T15:30:20.337Z,98286.00
2022-11-05T15:35:29.757Z,98275.00
2022-11-05T15:40:34.129Z,98281.00
2022-11-05T15:45:36.960Z,98280.00
2022-11-05T15:50:40.103Z,98285.00
2022-11-05T15:55:55.889Z,98301.00
2022-11-05T16:00:58.670Z,98289.00
2022-11-05T16:06:02.445Z,98302.00
2022-11-05T16:11:05.335Z,98306.00
2022-11-05T16:16:26.176Z,98310.00
2022-11-05T16:21:29.047Z,98320.00
2022-11-05T16:27:01.671Z,98311.00
2022-11-05T16:32:30.549Z,98308.00
2022-11-05T16:37:45.236Z,98317.00
2022-11-05T16:42:53.978Z,98318.00
2022-11-05T16:47:56.774Z,98328.00
2022-11-05T16:52:59.589Z,98334.00
2022-11-05T16:58:02.467Z,98335.00
2022-11-05T17:03:05.241Z,98342.00
2022-11-05T17:08:08.849Z,98341.00
2022-11-05T17:13:20.643Z,98334.00
2022-11-05T17:18:23.933Z,98338.00
2022-11-05T17:23:26.899Z,98341.00
2022-11-05T17:28:30.547Z,98350.00
2022-11-05T17:33:34.337Z,98357.00
2022-11-05T17:38:37.588Z,98362.00
2022-11-05T17:43:40.569Z,98353.00
2022-11-05T17:48:44.781Z,98359.00
2022-11-05T17:53:49.316Z,98369.00
2022-11-05T17:58:52.121Z,98375.00
2022-11-05T18:03:55.612Z,98379.00
2022-11-05T18:08:58.360Z,98383.00
2022-11-05T18:14:01.284Z,98392.00
2022-11-05T18:19:04.258Z,98386.00
2022-11-05T18:24:07.739Z,98390.00
2022-11-05T18:29:10.709Z,98390.00
2022-11-05T18:34:13.429Z,98395.00
2022-11-05T18:39:16.186Z,98398.00
2022-11-05T18:44:22.846Z,98393.00
2022-11-05T18:49:25.942Z,98401.00
2022-11-05T18:54:28.943Z,98399.00
2022-11-05T18:59:39.753Z,98397.00
2022-11-05T19:05:00.345Z,98391.00
2022-11-05T19:10:06.997Z,98406.00
2022-11-05T19:15:10.188Z,98398.00
2022-11-05T19:20:13.388Z,98396.00
2022-11-05T19:25:16.201Z,98403.00
2022-11-05T19:30:19.026Z,98404.00
2022-11-05T19:35:22.276Z,98397.00
2022-11-05T19:40:25.330Z,98401.00
2022-11-05T19:45:44.262Z,98407.00
2022-11-05T19:50:48.046Z,98408.00
2022-11-05T19:55:50.855Z,98414.00
2022-11-05T20:00:56.167Z,98426.00
2022-11-05T20:06:03.696Z,98430.00
2022-11-05T20:11:07.042Z,98430.00
2022-11-05T20:16:24.539Z,98437.00
2022-11-05T20:21:27.281Z,98426.00
2022-11-05T20:26:30.180Z,98426.00
2022-11-05T20:31:32.946Z,98417.00
2022-11-05T20:36:35.655Z,98424.00
2022-11-05T20:41:38.811Z,98412.00
2022-11-05T20:46:41.625Z,98407.00
2022-11-05T20:51:44.342Z,98418.00
2022-11-05T20:56:47.111Z,98424.00
2022-11-05T21:01:52.131Z,98429.00
2022-11-05T21:06:54.986Z,98439.00
2022-11-05T21:12:12.923Z,98444.00
2022-11-05T21:17:15.633Z,98438.00
2022-11-05T21:22:18.469Z,98442.00
2022-11-05T21:27:21.231Z,98448.00
2022-11-05T21:32:23.932Z,98443.00
2022-11-05T21:37:27.101Z,98429.00
2022-11-05T21:42:30.539Z,98433.00
2022-11-05T21:47:33.427Z,98417.00
2022-11-05T21:52:54.700Z,98425.00
2022-11-05T21:58:17.332Z,98426.00
2022-11-05T22:03:20.067Z,98427.00
2022-11-05T22:08:22.935Z,98427.00
2022-11-05T22:13:25.619Z,98421.00
2022-11-05T22:18:28.398Z,98417.00
2022-11-05T22:23:31.087Z,98409.00
2022-11-05T22:28:33.796Z,98410.00
